sensor_id;sensor_type;location;lat;lon;timestamp;pressure;altitude;pressure_sealevel;temperature;humidity
25638;BME280;13496;51.040;13.680;2023-02-10T00:02:35;101478.56;;;15.35;53.01
25638;BME280;13496;51.040;13.680;2023-02-10T00:07:36;101474.31;;;15.34;52.83
25638;BME280;13496;51.040;13.680;2023-02-10T00:12:38;101467.19;;;15.36;53.01
25638;BME280;13496;51.040;13.680;2023-02-10T00:17:40;101464.81;;;15.33;53.19
25638;BME280;13496;51.040;13.680;2023-02-10T00:22:41;101460.41;;;15.33;52.96
25638;BME280;13496;51.040;13.680;2023-02-10T00:27:43;101465.63;;;15.33;52.87
25638;BME280;13496;51.040;13.680;2023-02-10T00:32:44;101465.63;;;15.33;52.98
25638;BME280;13496;51.040;13.680;2023-02-10T00:37:46;101472.75;;;15.31;52.69
25638;BME280;13496;51.040;13.680;2023-02-10T00:42:48;101478.13;;;15.30;52.95
25638;BME280;13496;51.040;13.680;2023-02-10T00:47:50;101479.19;;;15.27;52.67
25638;BME280;13496;51.040;13.680;2023-02-10T00:52:51;101487.03;;;15.27;53.22
25638;BME280;13496;51.040;13.680;2023-02-10T00:57:53;101488.72;;;15.28;52.83
25638;BME280;13496;51.040;13.680;2023-02-10T01:02:55;101485.38;;;15.26;52.67
25638;BME280;13496;51.040;13.680;2023-02-10T01:07:56;101482.78;;;15.26;52.60
25638;BME280;13496;51.040;13.680;2023-02-10T01:12:58;101481.13;;;15.25;52.58
25638;BME280;13496;51.040;13.680;2023-02-10T01:18:00;101474.94;;;15.26;53.22
25638;BME280;13496;51.040;13.680;2023-02-10T01:23:01;101482.91;;;15.24;52.57
25638;BME280;13496;51.040;13.680;2023-02-10T01:28:04;101485.38;;;15.26;52.78
25638;BME280;13496;51.040;13.680;2023-02-10T01:33:06;101485.75;;;15.21;52.85
25638;BME280;13496;51.040;13.680;2023-02-10T01:38:07;101487.56;;;15.21;52.85
25638;BME280;13496;51.040;13.680;2023-02-10T01:43:14;101479.72;;;15.21;52.94
25638;BME280;13496;51.040;13.680;2023-02-10T01:48:16;101487.56;;;15.21;52.64
25638;BME280;13496;51.040;13.680;2023-02-10T01:53:17;101487.56;;;15.21;53.09
25638;BME280;13496;51.040;13.680;2023-02-10T01:58:23;101492.06;;;15.19;52.95
25638;BME280;13496;51.040;13.680;2023-02-10T02:03:26;101485.88;;;15.20;52.48
25638;BME280;13496;51.040;13.680;2023-02-10T02:08:29;101496.59;;;15.17;52.59
25638;BME280;13496;51.040;13.680;2023-02-10T02:13:40;101493.03;;;15.18;52.54
25638;BME280;13496;51.040;13.680;2023-02-10T02:19:16;101499.06;;;15.18;52.85
25638;BME280;13496;51.040;13.680;2023-02-10T02:35:15;101491.38;;;15.17;52.87
25638;BME280;13496;51.040;13.680;2023-02-10T02:40:19;101489.69;;;15.16;52.55
25638;BME280;13496;51.040;13.680;2023-02-10T02:45:53;101497.66;;;15.14;52.94
25638;BME280;13496;51.040;13.680;2023-02-10T02:51:15;101495.16;;;15.13;52.94
25638;BME280;13496;51.040;13.680;2023-02-10T03:02:07;101497.66;;;15.14;52.62
25638;BME280;13496;51.040;13.680;2023-02-10T03:07:12;101488.28;;;15.12;52.93
25638;BME280;13496;51.040;13.680;2023-02-10T03:12:14;101491.84;;;15.11;52.41
25638;BME280;13496;51.040;13.680;2023-02-10T03:17:16;101491.13;;;15.09;52.79
25638;BME280;13496;51.040;13.680;2023-02-10T03:22:17;101487.69;;;15.08;52.90
25638;BME280;13496;51.040;13.680;2023-02-10T03:27:19;101490.06;;;15.11;52.47
25638;BME280;13496;51.040;13.680;2023-02-10T03:32:21;101499.81;;;15.09;52.54
25638;BME280;13496;51.040;13.680;2023-02-10T03:37:22;101497.31;;;15.08;52.58
25638;BME280;13496;51.040;13.680;2023-02-10T03:42:24;101496.50;;;15.07;52.48
25638;BME280;13496;51.040;13.680;2023-02-10T03:47:26;101486.16;;;15.06;52.55
25638;BME280;13496;51.040;13.680;2023-02-10T03:52:27;101494.84;;;15.06;52.57
25638;BME280;13496;51.040;13.680;2023-02-10T03:57:29;101483.56;;;15.06;52.20
25638;BME280;13496;51.040;13.680;2023-02-10T04:02:31;101494.94;;;15.05;52.26
25638;BME280;13496;51.040;13.680;2023-02-10T04:07:32;101504.72;;;15.03;52.73
25638;BME280;13496;51.040;13.680;2023-02-10T04:12:34;101502.78;;;15.05;52.62
25638;BME280;13496;51.040;13.680;2023-02-10T04:17:36;101539.28;;;15.06;52.26
25638;BME280;13496;51.040;13.680;2023-02-10T04:22:37;101549.84;;;15.05;52.75
25638;BME280;13496;51.040;13.680;2023-02-10T04:27:39;101550.66;;;15.05;52.26
25638;BME280;13496;51.040;13.680;2023-02-10T04:32:41;101558.63;;;15.04;52.21
25638;BME280;13496;51.040;13.680;2023-02-10T04:37:42;101554.25;;;15.04;52.26
25638;BME280;13496;51.040;13.680;2023-02-10T04:42:44;101570.88;;;15.03;52.25
25638;BME280;13496;51.040;13.680;2023-02-10T04:47:46;101574.19;;;15.05;52.45
25638;BME280;13496;51.040;13.680;2023-02-10T04:52:47;101579.31;;;15.07;52.47
25638;BME280;13496;51.040;13.680;2023-02-10T04:57:49;101579.69;;;15.02;52.30
25638;BME280;13496;51.040;13.680;2023-02-10T05:02:50;101573.59;;;15.01;52.47
25638;BME280;13496;51.040;13.680;2023-02-10T05:07:53;101577.06;;;15.02;52.28
25638;BME280;13496;51.040;13.680;2023-02-10T05:12:54;101578.81;;;15.01;52.27
25638;BME280;13496;51.040;13.680;2023-02-10T05:17:56;101585.84;;;15.01;52.01
25638;BME280;13496;51.040;13.680;2023-02-10T05:22:58;101587.53;;;15.02;52.42
25638;BME280;13496;51.040;13.680;2023-02-10T05:27:59;101593.56;;;15.03;52.31
25638;BME280;13496;51.040;13.680;2023-02-10T05:33:01;101599.72;;;15.01;52.57
25638;BME280;13496;51.040;13.680;2023-02-10T05:38:04;101594.50;;;15.01;52.44
25638;BME280;13496;51.040;13.680;2023-02-10T05:43:05;101598.06;;;15.00;52.79
25638;BME280;13496;51.040;13.680;2023-02-10T05:48:09;101599.72;;;15.01;53.03
25638;BME280;13496;51.040;13.680;2023-02-10T05:53:10;101612.09;;;14.99;52.87
25638;BME280;13496;51.040;13.680;2023-02-10T05:58:14;101607.56;;;15.01;52.85
25638;BME280;13496;51.040;13.680;2023-02-10T06:03:15;101621.72;;;14.99;52.68
25638;BME280;13496;51.040;13.680;2023-02-10T06:08:17;101623.53;;;14.98;53.23
25638;BME280;13496;51.040;13.680;2023-02-10T06:13:19;101646.31;;;14.96;52.98
25638;BME280;13496;51.040;13.680;2023-02-10T06:18:21;101641.09;;;14.96;53.19
25638;BME280;13496;51.040;13.680;2023-02-10T06:23:24;101644.44;;;14.98;52.96
25638;BME280;13496;51.040;13.680;2023-02-10T06:28:27;101644.53;;;14.97;53.09
25638;BME280;13496;51.040;13.680;2023-02-10T06:33:28;101634.91;;;14.97;53.18
25638;BME280;13496;51.040;13.680;2023-02-10T06:38:34;101656.78;;;14.96;53.21
25638;BME280;13496;51.040;13.680;2023-02-10T06:43:35;101660.34;;;14.95;53.16
25638;BME280;13496;51.040;13.680;2023-02-10T06:48:37;101674.94;;;14.98;53.25
25638;BME280;13496;51.040;13.680;2023-02-10T06:53:39;101675.78;;;14.98;53.26
25638;BME280;13496;51.040;13.680;2023-02-10T06:58:41;101683.88;;;14.95;53.25
25638;BME280;13496;51.040;13.680;2023-02-10T07:03:42;101706.31;;;14.98;53.21
25638;BME280;13496;51.040;13.680;2023-02-10T07:08:44;101702.75;;;14.99;53.01
25638;BME280;13496;51.040;13.680;2023-02-10T07:13:47;101695.84;;;14.98;52.75
25638;BME280;13496;51.040;13.680;2023-02-10T07:18:49;101705.38;;;14.99;53.20
25638;BME280;13496;51.040;13.680;2023-02-10T07:23:51;101707.16;;;14.98;52.97
25638;BME280;13496;51.040;13.680;2023-02-10T07:28:52;101726.97;;;15.01;53.27
25638;BME280;13496;51.040;13.680;2023-02-10T07:33:54;101720.94;;;15.00;52.87
25638;BME280;13496;51.040;13.680;2023-02-10T07:38:56;101709.66;;;15.00;52.90
25638;BME280;13496;51.040;13.680;2023-02-10T07:43:57;101705.16;;;15.02;52.68
25638;BME280;13496;51.040;13.680;2023-02-10T07:48:59;101725.19;;;15.01;53.09
25638;BME280;13496;51.040;13.680;2023-02-10T07:54:01;101719.03;;;15.03;52.78
25638;BME280;13496;51.040;13.680;2023-02-10T07:59:03;101708.59;;;15.03;52.97
25638;BME280;13496;51.040;13.680;2023-02-10T08:04:04;101728.53;;;15.04;52.82
25638;BME280;13496;51.040;13.680;2023-02-10T08:09:07;101741.38;;;15.07;53.03
25638;BME280;13496;51.040;13.680;2023-02-10T08:14:08;101735.34;;;15.06;53.08
25638;BME280;13496;51.040;13.680;2023-02-10T08:19:10;101740.44;;;15.08;52.74
25638;BME280;13496;51.040;13.680;2023-02-10T08:24:12;101743.78;;;15.10;52.69
25638;BME280;13496;51.040;13.680;2023-02-10T08:29:14;101723.78;;;15.09;52.60
25638;BME280;13496;51.040;13.680;2023-02-10T08:34:16;101729.88;;;15.09;52.57
25638;BME280;13496;51.040;13.680;2023-02-10T08:39:18;101743.78;;;15.10;52.47
25638;BME280;13496;51.040;13.680;2023-02-10T08:44:20;101745.44;;;15.11;52.38
25638;BME280;13496;51.040;13.680;2023-02-10T08:49:22;101744.59;;;15.10;52.51
25638;BME280;13496;51.040;13.680;2023-02-10T08:54:25;101751.38;;;15.13;52.40
25638;BME280;13496;51.040;13.680;2023-02-10T08:59:27;101770.63;;;15.12;52.49
25638;BME280;13496;51.040;13.680;2023-02-10T09:04:29;101768.75;;;15.14;52.89
25638;BME280;13496;51.040;13.680;2023-02-10T09:09:30;101772.28;;;15.13;52.37
25638;BME280;13496;51.040;13.680;2023-02-10T09:14:32;101781.91;;;15.12;52.48
25638;BME280;13496;51.040;13.680;2023-02-10T09:19:35;101783.59;;;15.13;52.09
25638;BME280;13496;51.040;13.680;2023-02-10T09:24:37;101785.25;;;15.14;52.74
25638;BME280;13496;51.040;13.680;2023-02-10T09:29:38;101795.59;;;15.16;52.48
25638;BME280;13496;51.040;13.680;2023-02-10T09:34:40;101797.38;;;15.15;51.85
25638;BME280;13496;51.040;13.680;2023-02-10T09:39:42;101803.19;;;15.19;52.41
25638;BME280;13496;51.040;13.680;2023-02-10T09:44:49;101782.50;;;15.16;52.40
25638;BME280;13496;51.040;13.680;2023-02-10T09:55:15;101778.72;;;15.20;52.30
25638;BME280;13496;51.040;13.680;2023-02-10T10:00:26;101767.44;;;15.19;52.29
25638;BME280;13496;51.040;13.680;2023-02-10T10:10:42;101780.19;;;15.24;52.48
25638;BME280;13496;51.040;13.680;2023-02-10T10:15:58;101773.25;;;15.23;52.12
25638;BME280;13496;51.040;13.680;2023-02-10T10:21:16;101772.19;;;15.25;51.81
25638;BME280;13496;51.040;13.680;2023-02-10T10:26:41;101787.16;;;15.23;52.33
25638;BME280;13496;51.040;13.680;2023-02-10T10:31:49;101787.28;;;15.22;51.58
25638;BME280;13496;51.040;13.680;2023-02-10T10:36:56;101787.28;;;15.22;51.80
25638;BME280;13496;51.040;13.680;2023-02-10T10:42:02;101785.41;;;15.24;51.28
25638;BME280;13496;51.040;13.680;2023-02-10T10:47:18;101781.09;;;15.23;51.79
25638;BME280;13496;51.040;13.680;2023-02-10T10:52:32;101769.47;;;15.27;51.33
25638;BME280;13496;51.040;13.680;2023-02-10T10:57:34;101762.78;;;15.23;51.33
25638;BME280;13496;51.040;13.680;2023-02-10T11:02:36;101771.59;;;15.22;52.16
25638;BME280;13496;51.040;13.680;2023-02-10T11:07:39;101774.94;;;15.24;51.62
25638;BME280;13496;51.040;13.680;2023-02-10T11:12:45;101780.41;;;15.21;52.18
25638;BME280;13496;51.040;13.680;2023-02-10T11:17:47;101792.28;;;15.25;51.92
25638;BME280;13496;51.040;13.680;2023-02-10T11:23:17;101779.31;;;15.23;51.66
25638;BME280;13496;51.040;13.680;2023-02-10T11:28:21;101784.69;;;15.22;51.61
25638;BME280;13496;51.040;13.680;2023-02-10T11:33:25;101797.63;;;15.23;52.11
25638;BME280;13496;51.040;13.680;2023-02-10T11:38:27;101787.88;;;15.25;52.14
25638;BME280;13496;51.040;13.680;2023-02-10T11:43:42;101796.69;;;15.24;52.01
25638;BME280;13496;51.040;13.680;2023-02-10T11:53:57;101784.44;;;15.25;51.37
25638;BME280;13496;51.040;13.680;2023-02-10T11:59:08;101792.28;;;15.25;51.51
25638;BME280;13496;51.040;13.680;2023-02-10T12:04:46;101782.06;;;15.22;51.66
25638;BME280;13496;51.040;13.680;2023-02-10T12:09:59;101778.38;;;15.24;51.98
25638;BME280;13496;51.040;13.680;2023-02-10T12:20:42;101760.09;;;15.24;51.50
25638;BME280;13496;51.040;13.680;2023-02-10T12:25:55;101757.22;;;15.28;51.65
25638;BME280;13496;51.040;13.680;2023-02-10T12:31:14;101762.13;;;15.32;51.50
25638;BME280;13496;51.040;13.680;2023-02-10T12:36:32;101752.34;;;15.34;51.76
25638;BME280;13496;51.040;13.680;2023-02-10T12:41:50;101747.84;;;15.36;51.19
25638;BME280;13496;51.040;13.680;2023-02-10T12:52:49;101726.69;;;15.39;51.11
25638;BME280;13496;51.040;13.680;2023-02-10T12:57:58;101720.28;;;15.43;51.24
25638;BME280;13496;51.040;13.680;2023-02-10T13:03:10;101719.53;;;15.41;51.78
25638;BME280;13496;51.040;13.680;2023-02-10T13:08:24;101724.69;;;15.43;51.26
25638;BME280;13496;51.040;13.680;2023-02-10T13:13:29;101709.91;;;15.42;51.32
25638;BME280;13496;51.040;13.680;2023-02-10T13:18:39;101703.63;;;15.44;51.66
25638;BME280;13496;51.040;13.680;2023-02-10T13:23:50;101702.56;;;15.47;51.49
25638;BME280;13496;51.040;13.680;2023-02-10T13:29:30;101698.97;;;15.48;51.58
25638;BME280;13496;51.040;13.680;2023-02-10T13:34:42;101693.50;;;15.51;51.26
25638;BME280;13496;51.040;13.680;2023-02-10T13:39:54;101689.34;;;15.48;51.59
25638;BME280;13496;51.040;13.680;2023-02-10T14:00:23;101683.41;;;15.46;51.81
25638;BME280;13496;51.040;13.680;2023-02-10T14:05:32;101668.78;;;15.44;51.50
25638;BME280;13496;51.040;13.680;2023-02-10T14:10:33;101666.75;;;15.47;51.50
25638;BME280;13496;51.040;13.680;2023-02-10T14:15:38;101670.34;;;15.46;51.86
25638;BME280;13496;51.040;13.680;2023-02-10T14:20:58;101661.63;;;15.46;51.42
25638;BME280;13496;51.040;13.680;2023-02-10T14:26:03;101667.72;;;15.46;51.62
25638;BME280;13496;51.040;13.680;2023-02-10T14:31:27;101678.41;;;15.43;51.35
25638;BME280;13496;51.040;13.680;2023-02-10T14:36:29;101681.97;;;15.42;51.83
25638;BME280;13496;51.040;13.680;2023-02-10T14:41:32;101681.28;;;15.40;51.60
25638;BME280;13496;51.040;13.680;2023-02-10T14:46:35;101678.41;;;15.43;51.42
25638;BME280;13496;51.040;13.680;2023-02-10T14:51:43;101667.97;;;15.43;51.69
25638;BME280;13496;51.040;13.680;2023-02-10T14:56:58;101658.44;;;15.42;51.87
25638;BME280;13496;51.040;13.680;2023-02-10T15:02:22;101659.63;;;15.38;52.03
25638;BME280;13496;51.040;13.680;2023-02-10T15:07:27;101662.00;;;15.41;51.57
25638;BME280;13496;51.040;13.680;2023-02-10T15:12:31;101663.66;;;15.42;51.80
25638;BME280;13496;51.040;13.680;2023-02-10T15:17:37;101656.66;;;15.43;51.59
25638;BME280;13496;51.040;13.680;2023-02-10T15:23:25;101651.78;;;15.38;51.74
25638;BME280;13496;51.040;13.680;2023-02-10T15:33:22;101643.00;;;15.39;51.62
25638;BME280;13496;51.040;13.680;2023-02-10T15:38:27;101644.66;;;15.40;51.68
25638;BME280;13496;51.040;13.680;2023-02-10T15:43:30;101641.06;;;15.41;51.72
25638;BME280;13496;51.040;13.680;2023-02-10T15:48:32;101642.16;;;15.39;51.53
25638;BME280;13496;51.040;13.680;2023-02-10T15:53:33;101642.16;;;15.39;51.58
25638;BME280;13496;51.040;13.680;2023-02-10T15:58:35;101639.56;;;15.39;51.61
25638;BME280;13496;51.040;13.680;2023-02-10T16:03:37;101645.63;;;15.39;51.77
25638;BME280;13496;51.040;13.680;2023-02-10T16:08:39;101643.22;;;15.36;52.21
25638;BME280;13496;51.040;13.680;2023-02-10T16:13:41;101635.38;;;15.36;51.71
25638;BME280;13496;51.040;13.680;2023-02-10T16:18:42;101641.44;;;15.37;51.60
25638;BME280;13496;51.040;13.680;2023-02-10T16:23:44;101654.66;;;15.35;52.19
25638;BME280;13496;51.040;13.680;2023-02-10T16:28:46;101653.78;;;15.35;51.83
25638;BME280;13496;51.040;13.680;2023-02-10T16:33:48;101664.16;;;15.36;51.85
25638;BME280;13496;51.040;13.680;2023-02-10T16:38:50;101652.03;;;15.35;51.83
25638;BME280;13496;51.040;13.680;2023-02-10T16:43:52;101650.34;;;15.34;51.65
25638;BME280;13496;51.040;13.680;2023-02-10T16:48:54;101647.75;;;15.34;52.15
25638;BME280;13496;51.040;13.680;2023-02-10T16:53:55;101650.34;;;15.34;52.14
25638;BME280;13496;51.040;13.680;2023-02-10T16:58:57;101658.19;;;15.34;52.37
25638;BME280;13496;51.040;13.680;2023-02-10T17:03:59;101648.69;;;15.33;52.47
25638;BME280;13496;51.040;13.680;2023-02-10T17:09:03;101657.50;;;15.32;52.04
25638;BME280;13496;51.040;13.680;2023-02-10T17:14:05;101645.34;;;15.31;52.11
25638;BME280;13496;51.040;13.680;2023-02-10T17:19:07;101657.50;;;15.32;52.00
25638;BME280;13496;51.040;13.680;2023-02-10T17:24:09;101643.47;;;15.33;52.19
25638;BME280;13496;51.040;13.680;2023-02-10T17:29:12;101634.06;;;15.31;52.39
25638;BME280;13496;51.040;13.680;2023-02-10T17:34:15;101634.91;;;15.31;52.43
25638;BME280;13496;51.040;13.680;2023-02-10T17:39:20;101632.19;;;15.33;52.33
25638;BME280;13496;51.040;13.680;2023-02-10T17:44:32;101634.06;;;15.31;52.20
25638;BME280;13496;51.040;13.680;2023-02-10T17:49:34;101639.19;;;15.32;52.56
25638;BME280;13496;51.040;13.680;2023-02-10T17:54:36;101639.31;;;15.31;52.20
25638;BME280;13496;51.040;13.680;2023-02-10T17:59:37;101644.44;;;15.32;52.57
25638;BME280;13496;51.040;13.680;2023-02-10T18:04:40;101647.03;;;15.32;52.62
25638;BME280;13496;51.040;13.680;2023-02-10T18:09:44;101637.41;;;15.33;52.54
25638;BME280;13496;51.040;13.680;2023-02-10T18:14:46;101643.59;;;15.32;52.21
25638;BME280;13496;51.040;13.680;2023-02-10T18:19:50;101635.16;;;15.28;52.59
25638;BME280;13496;51.040;13.680;2023-02-10T18:24:52;101638.47;;;15.30;52.30
25638;BME280;13496;51.040;13.680;2023-02-10T18:29:53;101630.63;;;15.30;52.69
25638;BME280;13496;51.040;13.680;2023-02-10T18:34:55;101629.66;;;15.31;52.59
25638;BME280;13496;51.040;13.680;2023-02-10T18:39:57;101632.28;;;15.31;52.18
25638;BME280;13496;51.040;13.680;2023-02-10T18:45:00;101628.00;;;15.30;52.36
25638;BME280;13496;51.040;13.680;2023-02-10T18:50:01;101630.63;;;15.30;52.24
25638;BME280;13496;51.040;13.680;2023-02-10T18:55:03;101629.06;;;15.28;52.48
25638;BME280;13496;51.040;13.680;2023-02-10T19:00:06;101624.56;;;15.30;52.62
25638;BME280;13496;51.040;13.680;2023-02-10T19:05:08;101627.06;;;15.31;52.25
25638;BME280;13496;51.040;13.680;2023-02-10T19:10:10;101633.25;;;15.30;52.65
25638;BME280;13496;51.040;13.680;2023-02-10T19:15:12;101630.75;;;15.29;52.84
25638;BME280;13496;51.040;13.680;2023-02-10T19:20:13;101634.06;;;15.31;52.38
25638;BME280;13496;51.040;13.680;2023-02-10T19:25:15;101615.16;;;15.27;52.69
25638;BME280;13496;51.040;13.680;2023-02-10T19:30:17;101603.78;;;15.28;52.32
25638;BME280;13496;51.040;13.680;2023-02-10T19:35:19;101593.31;;;15.28;52.23
25638;BME280;13496;51.040;13.680;2023-02-10T19:40:20;101588.91;;;15.29;52.31
25638;BME280;13496;51.040;13.680;2023-02-10T19:45:22;101570.72;;;15.27;52.41
25638;BME280;13496;51.040;13.680;2023-02-10T19:50:24;101570.63;;;15.29;52.47
25638;BME280;13496;51.040;13.680;2023-02-10T19:55:26;101562.03;;;15.27;52.18
25638;BME280;13496;51.040;13.680;2023-02-10T20:00:27;101550.75;;;15.26;52.58
25638;BME280;13496;51.040;13.680;2023-02-10T20:05:30;101566.31;;;15.28;52.60
25638;BME280;13496;51.040;13.680;2023-02-10T20:10:32;101554.78;;;15.30;53.18
25638;BME280;13496;51.040;13.680;2023-02-10T20:15:33;101541.84;;;15.29;53.52
25638;BME280;13496;51.040;13.680;2023-02-10T20:20:35;101541.63;;;15.32;53.56
25638;BME280;13496;51.040;13.680;2023-02-10T20:25:37;101539.94;;;15.31;53.98
25638;BME280;13496;51.040;13.680;2023-02-10T20:30:39;101549.56;;;15.30;53.64
25638;BME280;13496;51.040;13.680;2023-02-10T20:35:41;101559.78;;;15.33;53.79
25638;BME280;13496;51.040;13.680;2023-02-10T20:40:42;101568.59;;;15.32;53.63
25638;BME280;13496;51.040;13.680;2023-02-10T20:45:44;101577.25;;;15.33;53.42
25638;BME280;13496;51.040;13.680;2023-02-10T20:50:46;101586.31;;;15.29;53.63
25638;BME280;13496;51.040;13.680;2023-02-10T20:55:47;101588.78;;;15.30;53.83
25638;BME280;13496;51.040;13.680;2023-02-10T21:00:49;101572.13;;;15.31;53.95
25638;BME280;13496;51.040;13.680;2023-02-10T21:05:51;101570.47;;;15.30;53.90
25638;BME280;13496;51.040;13.680;2023-02-10T21:10:54;101569.66;;;15.30;53.68
25638;BME280;13496;51.040;13.680;2023-02-10T21:15:55;101561.94;;;15.28;54.09
25638;BME280;13496;51.040;13.680;2023-02-10T21:20:58;101566.31;;;15.28;53.88
25638;BME280;13496;51.040;13.680;2023-02-10T21:26:01;101573.34;;;15.27;53.40
25638;BME280;13496;51.040;13.680;2023-02-10T21:31:11;101567.88;;;15.30;53.88
25638;BME280;13496;51.040;13.680;2023-02-10T21:36:31;101562.78;;;15.29;53.51
25638;BME280;13496;51.040;13.680;2023-02-10T21:41:32;101567.19;;;15.28;53.91
25638;BME280;13496;51.040;13.680;2023-02-10T21:46:44;101561.94;;;15.28;53.72
25638;BME280;13496;51.040;13.680;2023-02-10T21:51:47;101556.00;;;15.26;53.79
25638;BME280;13496;51.040;13.680;2023-02-10T21:56:48;101544.56;;;15.27;53.66
25638;BME280;13496;51.040;13.680;2023-02-10T22:01:50;101532.47;;;15.26;53.56
25638;BME280;13496;51.040;13.680;2023-02-10T22:06:52;101526.41;;;15.25;54.15
25638;BME280;13496;51.040;13.680;2023-02-10T22:11:53;101517.72;;;15.25;53.76
25638;BME280;13496;51.040;13.680;2023-02-10T22:16:55;101527.47;;;15.23;54.00
25638;BME280;13496;51.040;13.680;2023-02-10T22:21:57;101525.56;;;15.25;53.90
25638;BME280;13496;51.040;13.680;2023-02-10T22:27:00;101518.94;;;15.21;53.70
25638;BME280;13496;51.040;13.680;2023-02-10T22:32:02;101504.75;;;15.23;53.65
25638;BME280;13496;51.040;13.680;2023-02-10T22:37:04;101496.09;;;15.23;53.68
25638;BME280;13496;51.040;13.680;2023-02-10T22:42:06;101505.97;;;15.19;53.50
25638;BME280;13496;51.040;13.680;2023-02-10T22:47:07;101498.84;;;15.21;53.56
25638;BME280;13496;51.040;13.680;2023-02-10T22:52:09;101491.09;;;15.20;53.95
25638;BME280;13496;51.040;13.680;2023-02-10T22:57:11;101474.72;;;15.18;54.13
25638;BME280;13496;51.040;13.680;2023-02-10T23:02:12;101469.34;;;15.19;54.24
25638;BME280;13496;51.040;13.680;2023-02-10T23:07:14;101465.09;;;15.18;53.79
25638;BME280;13496;51.040;13.680;2023-02-10T23:12:16;101464.25;;;15.18;53.92
25638;BME280;13496;51.040;13.680;2023-02-10T23:17:17;101454.63;;;15.18;53.32
25638;BME280;13496;51.040;13.680;2023-02-10T23:22:19;101437.28;;;15.17;53.82
25638;BME280;13496;51.040;13.680;2023-02-10T23:27:23;101425.28;;;15.15;54.07
25638;BME280;13496;51.040;13.680;2023-02-10T23:32:26;101414.84;;;15.15;53.87
25638;BME280;13496;51.040;13.680;2023-02-10T23:37:28;101419.25;;;15.14;53.75
25638;BME280;13496;51.040;13.680;2023-02-10T23:42:29;101422.53;;;15.16;54.12
25638;BME280;13496;51.040;13.680;2023-02-10T23:47:31;101408.78;;;15.14;53.76
25638;BME280;13496;51.040;13.680;2023-02-10T23:52:33;101389.53;;;15.15;53.81
25638;BME280;13496;51.040;13.680;2023-02-10T23:57:34;101388.69;;;15.15;53.54
